Throop, Pennsylvania
Current Conditions -  °F | °C
As of 1:54 PM on Friday 28 Nov 2014 (Local Time) from KAVP Reporting Station
Broken Clouds Broken Clouds  
Wind Chill: 20°   Ceiling: 4600
Heat Index: 29°   Visibility: 10mi
Dew Point: 13°   Wind: 10mph
Humidity: 51%   Direction: 340°NNW
Pressure: 30.18"   Gusts: 20mph
Location:  41.4243°N, 75.5976°W
Report Text: KAVP 281854Z 34009G17KT 320V030 10SM BKN046 M02/M11 A3018 RMK AO2 SLP228 T10171106
Loading
Personal Weather Stations






























Interactive Weather Map New forecast layout! Learn more

10-Day Weather Forecast

Advertisements
Track Severe Weather on mobile